sensor_id;sensor_type;location;lat;lon;timestamp;pressure;altitude;pressure_sealevel;temperature;humidity
17772;BME280;9010;32.624;-96.938;2022-07-21T00:02:00;98489.50;;;38.37;36.18
17772;BME280;9010;32.624;-96.938;2022-07-21T00:04:28;98499.94;;;38.35;36.08
17772;BME280;9010;32.624;-96.938;2022-07-21T00:06:56;98492.50;;;38.30;36.88
17772;BME280;9010;32.624;-96.938;2022-07-21T00:09:28;98494.69;;;38.18;37.32
17772;BME280;9010;32.624;-96.938;2022-07-21T00:11:56;98481.53;;;38.15;36.55
17772;BME280;9010;32.624;-96.938;2022-07-21T00:14:24;98476.59;;;38.22;36.90
17772;BME280;9010;32.624;-96.938;2022-07-21T00:16:53;98481.53;;;38.20;36.69
17772;BME280;9010;32.624;-96.938;2022-07-21T00:19:21;98476.03;;;38.10;37.50
17772;BME280;9010;32.624;-96.938;2022-07-21T00:21:58;98487.31;;;38.14;36.79
17772;BME280;9010;32.624;-96.938;2022-07-21T00:24:29;98485.66;;;38.08;37.49
17772;BME280;9010;32.624;-96.938;2022-07-21T00:26:57;98482.94;;;37.97;37.52
17772;BME280;9010;32.624;-96.938;2022-07-21T00:29:25;98477.16;;;37.94;38.01
17772;BME280;9010;32.624;-96.938;2022-07-21T00:31:56;98481.81;;;37.98;38.32
17772;BME280;9010;32.624;-96.938;2022-07-21T00:34:26;98477.41;;;37.87;39.01
17772;BME280;9010;32.624;-96.938;2022-07-21T00:36:54;98491.41;;;37.76;40.18
17772;BME280;9010;32.624;-96.938;2022-07-21T00:39:23;98471.63;;;37.54;40.22
17772;BME280;9010;32.624;-96.938;2022-07-21T00:41:53;98493.28;;;37.55;40.41
17772;BME280;9010;32.624;-96.938;2022-07-21T00:44:22;98488.09;;;37.49;41.53
17772;BME280;9010;32.624;-96.938;2022-07-21T00:46:51;98491.59;;;37.39;42.23
17772;BME280;9010;32.624;-96.938;2022-07-21T00:49:22;98485.28;;;37.38;42.11
17772;BME280;9010;32.624;-96.938;2022-07-21T00:51:52;98489.13;;;37.37;41.32
17772;BME280;9010;32.624;-96.938;2022-07-21T00:54:20;98488.31;;;37.37;41.77
17772;BME280;9010;32.624;-96.938;2022-07-21T00:56:52;98496.00;;;37.35;41.67
17772;BME280;9010;32.624;-96.938;2022-07-21T00:59:20;98496.53;;;37.32;41.15
17772;BME280;9010;32.624;-96.938;2022-07-21T01:01:49;98506.09;;;37.24;41.38
17772;BME280;9010;32.624;-96.938;2022-07-21T01:04:17;98503.88;;;37.16;41.42
17772;BME280;9010;32.624;-96.938;2022-07-21T01:06:53;98515.91;;;37.05;42.27
17772;BME280;9010;32.624;-96.938;2022-07-21T01:09:21;98523.28;;;37.00;42.28
17772;BME280;9010;32.624;-96.938;2022-07-21T01:11:50;98527.34;;;36.92;41.63
17772;BME280;9010;32.624;-96.938;2022-07-21T01:14:20;98527.56;;;36.80;43.15
17772;BME280;9010;32.624;-96.938;2022-07-21T01:16:49;98539.03;;;36.72;43.64
17772;BME280;9010;32.624;-96.938;2022-07-21T01:19:17;98534.84;;;36.65;43.34
17772;BME280;9010;32.624;-96.938;2022-07-21T01:21:48;98542.47;;;36.53;44.60
17772;BME280;9010;32.624;-96.938;2022-07-21T01:24:18;98541.84;;;36.46;44.63
17772;BME280;9010;32.624;-96.938;2022-07-21T01:26:49;98547.53;;;36.39;45.35
17772;BME280;9010;32.624;-96.938;2022-07-21T01:29:19;98550.78;;;36.31;44.88
17772;BME280;9010;32.624;-96.938;2022-07-21T01:31:49;98544.97;;;36.22;45.21
17772;BME280;9010;32.624;-96.938;2022-07-21T01:34:18;98547.34;;;36.14;45.31
17772;BME280;9010;32.624;-96.938;2022-07-21T01:36:48;98548.16;;;36.09;45.76
17772;BME280;9010;32.624;-96.938;2022-07-21T01:39:16;98549.19;;;36.03;46.05
17772;BME280;9010;32.624;-96.938;2022-07-21T01:42:01;98550.72;;;35.94;46.54
17772;BME280;9010;32.624;-96.938;2022-07-21T01:44:30;98558.06;;;35.89;47.07
17772;BME280;9010;32.624;-96.938;2022-07-21T01:46:58;98565.94;;;35.85;47.38
17772;BME280;9010;32.624;-96.938;2022-07-21T01:49:26;98571.91;;;35.77;48.02
17772;BME280;9010;32.624;-96.938;2022-07-21T01:51:56;98565.03;;;35.74;47.91
17772;BME280;9010;32.624;-96.938;2022-07-21T01:54:24;98563.09;;;35.70;48.32
17772;BME280;9010;32.624;-96.938;2022-07-21T01:56:53;98566.34;;;35.67;49.11
17772;BME280;9010;32.624;-96.938;2022-07-21T01:59:21;98572.31;;;35.64;48.78
17772;BME280;9010;32.624;-96.938;2022-07-21T02:01:49;98572.28;;;35.59;48.97
17772;BME280;9010;32.624;-96.938;2022-07-21T02:04:22;98564.59;;;35.56;49.04
17772;BME280;9010;32.624;-96.938;2022-07-21T02:06:50;98570.53;;;35.53;49.54
17772;BME280;9010;32.624;-96.938;2022-07-21T02:09:20;98576.25;;;35.51;49.37
17772;BME280;9010;32.624;-96.938;2022-07-21T02:11:49;98576.75;;;35.48;49.60
17772;BME280;9010;32.624;-96.938;2022-07-21T02:14:17;98573.19;;;35.48;49.65
17772;BME280;9010;32.624;-96.938;2022-07-21T02:16:50;98571.56;;;35.47;50.06
17772;BME280;9010;32.624;-96.938;2022-07-21T02:19:23;98576.69;;;35.43;50.50
17772;BME280;9010;32.624;-96.938;2022-07-21T02:21:51;98572.56;;;35.41;50.83
17772;BME280;9010;32.624;-96.938;2022-07-21T02:24:21;98579.72;;;35.42;52.35
17772;BME280;9010;32.624;-96.938;2022-07-21T02:26:49;98577.22;;;35.40;53.21
17772;BME280;9010;32.624;-96.938;2022-07-21T02:29:17;98574.47;;;35.40;52.11
17772;BME280;9010;32.624;-96.938;2022-07-21T02:31:45;98576.13;;;35.41;52.23
17772;BME280;9010;32.624;-96.938;2022-07-21T02:34:13;98579.13;;;35.40;51.44
17772;BME280;9010;32.624;-96.938;2022-07-21T02:36:42;98565.34;;;35.30;52.17
17772;BME280;9010;32.624;-96.938;2022-07-21T02:39:10;98584.66;;;35.45;51.35
17772;BME280;9010;32.624;-96.938;2022-07-21T02:41:40;98589.53;;;35.43;51.31
17772;BME280;9010;32.624;-96.938;2022-07-21T02:44:08;98593.38;;;35.42;52.39
17772;BME280;9010;32.624;-96.938;2022-07-21T02:46:36;98599.13;;;35.45;51.37
17772;BME280;9010;32.624;-96.938;2022-07-21T02:49:05;98593.94;;;35.44;51.18
17772;BME280;9010;32.624;-96.938;2022-07-21T02:51:33;98598.56;;;35.43;51.07
17772;BME280;9010;32.624;-96.938;2022-07-21T02:54:01;98599.47;;;35.49;50.64
17772;BME280;9010;32.624;-96.938;2022-07-21T02:56:29;98598.91;;;35.47;51.09
17772;BME280;9010;32.624;-96.938;2022-07-21T02:58:59;98602.16;;;35.44;50.99
17772;BME280;9010;32.624;-96.938;2022-07-21T03:01:28;98611.69;;;35.41;51.21
17772;BME280;9010;32.624;-96.938;2022-07-21T03:03:57;98603.72;;;35.40;51.04
17772;BME280;9010;32.624;-96.938;2022-07-21T03:06:25;98607.56;;;35.39;51.16
17772;BME280;9010;32.624;-96.938;2022-07-21T03:08:54;98605.13;;;35.42;50.63
17772;BME280;9010;32.624;-96.938;2022-07-21T03:11:23;98603.16;;;35.38;51.24
17772;BME280;9010;32.624;-96.938;2022-07-21T03:13:51;98605.91;;;35.38;51.08
17772;BME280;9010;32.624;-96.938;2022-07-21T03:16:21;98609.69;;;35.37;51.10
17772;BME280;9010;32.624;-96.938;2022-07-21T03:18:49;98612.25;;;35.43;49.84
17772;BME280;9010;32.624;-96.938;2022-07-21T03:21:17;98614.38;;;35.36;50.82
17772;BME280;9010;32.624;-96.938;2022-07-21T03:23:46;98605.84;;;35.33;50.26
17772;BME280;9010;32.624;-96.938;2022-07-21T03:26:14;98616.72;;;35.28;50.75
17772;BME280;9010;32.624;-96.938;2022-07-21T03:28:43;98605.78;;;35.28;50.57
17772;BME280;9010;32.624;-96.938;2022-07-21T03:31:12;98613.84;;;35.17;51.19
17772;BME280;9010;32.624;-96.938;2022-07-21T03:33:42;98617.06;;;35.14;51.43
17772;BME280;9010;32.624;-96.938;2022-07-21T03:36:10;98615.44;;;35.13;51.11
17772;BME280;9010;32.624;-96.938;2022-07-21T03:38:38;98618.69;;;35.10;50.99
17772;BME280;9010;32.624;-96.938;2022-07-21T03:41:06;98616.44;;;35.07;50.43
17772;BME280;9010;32.624;-96.938;2022-07-21T03:43:34;98616.94;;;35.04;50.45
17772;BME280;9010;32.624;-96.938;2022-07-21T03:46:03;98618.56;;;35.05;49.65
17772;BME280;9010;32.624;-96.938;2022-07-21T03:48:31;98619.06;;;35.02;50.33
17772;BME280;9010;32.624;-96.938;2022-07-21T03:51:01;98623.41;;;34.98;49.67
17772;BME280;9010;32.624;-96.938;2022-07-21T03:53:29;98632.66;;;34.97;48.47
17772;BME280;9010;32.624;-96.938;2022-07-21T03:55:57;98636.00;;;34.99;48.94
17772;BME280;9010;32.624;-96.938;2022-07-21T03:58:26;98636.16;;;34.93;49.71
17772;BME280;9010;32.624;-96.938;2022-07-21T04:00:54;98637.00;;;34.93;49.75
17772;BME280;9010;32.624;-96.938;2022-07-21T04:03:22;98639.22;;;34.96;48.34
17772;BME280;9010;32.624;-96.938;2022-07-21T04:05:50;98637.06;;;34.98;48.64
17772;BME280;9010;32.624;-96.938;2022-07-21T04:08:20;98630.38;;;34.89;48.95
17772;BME280;9010;32.624;-96.938;2022-07-21T04:10:49;98633.38;;;34.88;48.93
17772;BME280;9010;32.624;-96.938;2022-07-21T04:13:17;98635.34;;;34.92;48.69
17772;BME280;9010;32.624;-96.938;2022-07-21T04:15:46;98631.38;;;34.83;49.55
17772;BME280;9010;32.624;-96.938;2022-07-21T04:18:14;98637.66;;;34.84;49.51
17772;BME280;9010;32.624;-96.938;2022-07-21T04:20:42;98635.88;;;34.73;50.25
17772;BME280;9010;32.624;-96.938;2022-07-21T04:23:11;98651.91;;;34.69;49.24
17772;BME280;9010;32.624;-96.938;2022-07-21T04:25:40;98645.81;;;34.62;49.90
17772;BME280;9010;32.624;-96.938;2022-07-21T04:28:09;98642.47;;;34.60;49.86
17772;BME280;9010;32.624;-96.938;2022-07-21T04:30:38;98650.09;;;34.58;50.18
17772;BME280;9010;32.624;-96.938;2022-07-21T04:33:06;98656.28;;;34.53;51.47
17772;BME280;9010;32.624;-96.938;2022-07-21T04:35:34;98657.00;;;34.49;50.84
17772;BME280;9010;32.624;-96.938;2022-07-21T04:38:04;98666.31;;;34.48;51.51
17772;BME280;9010;32.624;-96.938;2022-07-21T04:40:32;98667.28;;;34.42;51.92
17772;BME280;9010;32.624;-96.938;2022-07-21T04:43:02;98666.59;;;34.35;51.95
17772;BME280;9010;32.624;-96.938;2022-07-21T04:45:30;98662.72;;;34.31;50.55
17772;BME280;9010;32.624;-96.938;2022-07-21T04:47:59;98663.78;;;34.30;50.53
17772;BME280;9010;32.624;-96.938;2022-07-21T04:50:28;98665.28;;;34.37;50.35
17772;BME280;9010;32.624;-96.938;2022-07-21T04:52:56;98664.97;;;34.34;49.66
17772;BME280;9010;32.624;-96.938;2022-07-21T04:55:25;98664.78;;;34.24;51.34
17772;BME280;9010;32.624;-96.938;2022-07-21T04:57:54;98666.09;;;34.21;50.92
17772;BME280;9010;32.624;-96.938;2022-07-21T05:00:26;98678.34;;;34.19;50.67
17772;BME280;9010;32.624;-96.938;2022-07-21T05:02:55;98681.66;;;34.21;50.50
17772;BME280;9010;32.624;-96.938;2022-07-21T05:05:24;98682.97;;;34.18;51.95
17772;BME280;9010;32.624;-96.938;2022-07-21T05:07:52;98682.63;;;34.15;50.86
17772;BME280;9010;32.624;-96.938;2022-07-21T05:10:20;98682.63;;;34.15;50.53
17772;BME280;9010;32.624;-96.938;2022-07-21T05:12:49;98681.56;;;34.16;50.81
17772;BME280;9010;32.624;-96.938;2022-07-21T05:15:17;98683.66;;;34.25;51.40
17772;BME280;9010;32.624;-96.938;2022-07-21T05:17:47;98684.50;;;34.26;52.56
17772;BME280;9010;32.624;-96.938;2022-07-21T05:20:16;98683.44;;;34.15;53.00
17772;BME280;9010;32.624;-96.938;2022-07-21T05:22:44;98694.16;;;34.17;53.80
17772;BME280;9010;32.624;-96.938;2022-07-21T05:25:12;98684.78;;;34.13;54.62
17772;BME280;9010;32.624;-96.938;2022-07-21T05:27:40;98685.97;;;34.17;55.05
17772;BME280;9010;32.624;-96.938;2022-07-21T05:30:10;98681.56;;;34.16;56.05
17772;BME280;9010;32.624;-96.938;2022-07-21T05:32:38;98678.75;;;34.11;57.20
17772;BME280;9010;32.624;-96.938;2022-07-21T05:35:08;98680.75;;;34.03;57.77
17772;BME280;9010;32.624;-96.938;2022-07-21T05:37:38;98680.44;;;34.00;58.79
17772;BME280;9010;32.624;-96.938;2022-07-21T05:40:08;98684.13;;;33.94;59.22
17772;BME280;9010;32.624;-96.938;2022-07-21T05:42:36;98689.47;;;33.89;59.90
17772;BME280;9010;32.624;-96.938;2022-07-21T05:45:07;98688.41;;;33.90;60.11
17772;BME280;9010;32.624;-96.938;2022-07-21T05:47:35;98683.09;;;33.83;61.17
17772;BME280;9010;32.624;-96.938;2022-07-21T05:50:04;98677.53;;;33.78;62.17
17772;BME280;9010;32.624;-96.938;2022-07-21T05:52:34;98672.09;;;33.78;62.38
17772;BME280;9010;32.624;-96.938;2022-07-21T05:55:03;98665.97;;;33.71;63.75
17772;BME280;9010;32.624;-96.938;2022-07-21T05:57:31;98662.63;;;33.69;63.88
17772;BME280;9010;32.624;-96.938;2022-07-21T06:00:00;98660.28;;;33.61;64.63
17772;BME280;9010;32.624;-96.938;2022-07-21T06:02:28;98652.81;;;33.57;65.14
17772;BME280;9010;32.624;-96.938;2022-07-21T06:04:58;98662.69;;;33.58;65.23
17772;BME280;9010;32.624;-96.938;2022-07-21T06:07:26;98659.56;;;33.54;66.04
17772;BME280;9010;32.624;-96.938;2022-07-21T06:09:56;98641.81;;;33.51;66.27
17772;BME280;9010;32.624;-96.938;2022-07-21T06:12:25;98655.09;;;33.48;66.77
17772;BME280;9010;32.624;-96.938;2022-07-21T06:14:54;98641.94;;;33.45;67.35
17772;BME280;9010;32.624;-96.938;2022-07-21T06:17:23;98627.59;;;33.38;67.78
17772;BME280;9010;32.624;-96.938;2022-07-21T06:19:51;98639.25;;;33.33;68.84
17772;BME280;9010;32.624;-96.938;2022-07-21T06:22:19;98637.00;;;33.30;68.49
17772;BME280;9010;32.624;-96.938;2022-07-21T06:24:47;98634.84;;;33.32;68.64
17772;BME280;9010;32.624;-96.938;2022-07-21T06:27:22;98639.38;;;33.27;69.82
17772;BME280;9010;32.624;-96.938;2022-07-21T06:29:50;98632.84;;;33.28;69.51
17772;BME280;9010;32.624;-96.938;2022-07-21T06:32:18;98637.13;;;33.24;70.20
17772;BME280;9010;32.624;-96.938;2022-07-21T06:34:47;98640.09;;;33.22;70.40
17772;BME280;9010;32.624;-96.938;2022-07-21T06:37:15;98636.34;;;33.12;71.43
17772;BME280;9010;32.624;-96.938;2022-07-21T06:39:43;98646.97;;;33.13;71.33
17772;BME280;9010;32.624;-96.938;2022-07-21T06:42:12;98645.19;;;33.19;71.03
17772;BME280;9010;32.624;-96.938;2022-07-21T06:44:41;98655.25;;;33.18;71.08
17772;BME280;9010;32.624;-96.938;2022-07-21T06:47:09;98644.03;;;33.15;71.72
17772;BME280;9010;32.624;-96.938;2022-07-21T06:49:38;98648.88;;;33.13;71.80
17772;BME280;9010;32.624;-96.938;2022-07-21T06:52:06;98650.88;;;33.06;72.21
17772;BME280;9010;32.624;-96.938;2022-07-21T06:54:34;98657.28;;;32.99;72.52
17772;BME280;9010;32.624;-96.938;2022-07-21T06:57:03;98660.22;;;32.98;73.08
17772;BME280;9010;32.624;-96.938;2022-07-21T06:59:32;98653.25;;;32.90;73.75
17772;BME280;9010;32.624;-96.938;2022-07-21T07:02:02;98659.53;;;32.91;74.12
17772;BME280;9010;32.624;-96.938;2022-07-21T07:04:30;98659.75;;;32.89;74.04
17772;BME280;9010;32.624;-96.938;2022-07-21T07:06:58;98652.09;;;32.86;74.67
17772;BME280;9010;32.624;-96.938;2022-07-21T07:09:27;98650.53;;;32.79;74.57
17772;BME280;9010;32.624;-96.938;2022-07-21T07:11:55;98649.47;;;32.68;75.81
17772;BME280;9010;32.624;-96.938;2022-07-21T07:14:29;98647.31;;;32.70;75.58
17772;BME280;9010;32.624;-96.938;2022-07-21T07:16:57;98643.44;;;32.66;76.11
17772;BME280;9010;32.624;-96.938;2022-07-21T07:19:27;98642.13;;;32.57;77.03
17772;BME280;9010;32.624;-96.938;2022-07-21T07:21:56;98635.63;;;32.58;76.94
17772;BME280;9010;32.624;-96.938;2022-07-21T07:24:24;98642.78;;;32.53;77.54
17772;BME280;9010;32.624;-96.938;2022-07-21T07:26:52;98648.94;;;32.48;77.94
17772;BME280;9010;32.624;-96.938;2022-07-21T07:29:21;98649.50;;;32.38;78.72
17772;BME280;9010;32.624;-96.938;2022-07-21T07:31:49;98634.84;;;32.39;78.88
17772;BME280;9010;32.624;-96.938;2022-07-21T07:34:17;98641.59;;;32.37;78.68
17772;BME280;9010;32.624;-96.938;2022-07-21T07:36:49;98651.72;;;32.30;79.37
17772;BME280;9010;32.624;-96.938;2022-07-21T07:39:17;98651.16;;;32.28;79.81
17772;BME280;9010;32.624;-96.938;2022-07-21T07:41:45;98642.16;;;32.27;79.89
17772;BME280;9010;32.624;-96.938;2022-07-21T07:44:14;98645.94;;;32.26;79.79
17772;BME280;9010;32.624;-96.938;2022-07-21T07:46:42;98641.56;;;32.25;80.70
17772;BME280;9010;32.624;-96.938;2022-07-21T07:49:10;98640.16;;;32.23;80.38
17772;BME280;9010;32.624;-96.938;2022-07-21T07:51:38;98637.41;;;32.23;80.33
17772;BME280;9010;32.624;-96.938;2022-07-21T07:54:08;98645.00;;;32.21;81.01
17772;BME280;9010;32.624;-96.938;2022-07-21T07:56:44;98637.28;;;32.18;81.49
17772;BME280;9010;32.624;-96.938;2022-07-21T07:59:12;98642.00;;;32.11;81.91
17772;BME280;9010;32.624;-96.938;2022-07-21T08:01:40;98635.38;;;32.07;82.00
17772;BME280;9010;32.624;-96.938;2022-07-21T08:04:18;98633.97;;;32.04;82.59
17772;BME280;9010;32.624;-96.938;2022-07-21T08:06:46;98637.47;;;32.05;83.18
17772;BME280;9010;32.624;-96.938;2022-07-21T08:09:16;98634.59;;;32.00;82.85
17772;BME280;9010;32.624;-96.938;2022-07-21T08:12:02;98635.06;;;31.97;83.09
17772;BME280;9010;32.624;-96.938;2022-07-21T08:14:31;98638.25;;;31.94;83.17
17772;BME280;9010;32.624;-96.938;2022-07-21T08:16:59;98643.22;;;31.97;83.25
17772;BME280;9010;32.624;-96.938;2022-07-21T08:19:27;98643.47;;;31.95;83.76
17772;BME280;9010;32.624;-96.938;2022-07-21T08:21:55;98647.50;;;31.93;83.46
17772;BME280;9010;32.624;-96.938;2022-07-21T08:24:25;98640.25;;;31.86;83.38
17772;BME280;9010;32.624;-96.938;2022-07-21T08:26:53;98651.97;;;31.87;83.84
17772;BME280;9010;32.624;-96.938;2022-07-21T08:29:22;98657.03;;;31.83;83.58
17772;BME280;9010;32.624;-96.938;2022-07-21T08:31:50;98655.94;;;31.84;83.64
17772;BME280;9010;32.624;-96.938;2022-07-21T08:34:18;98662.09;;;31.80;84.12
17772;BME280;9010;32.624;-96.938;2022-07-21T08:36:47;98660.53;;;31.72;85.07
17772;BME280;9010;32.624;-96.938;2022-07-21T08:39:15;98659.78;;;31.65;85.21
17772;BME280;9010;32.624;-96.938;2022-07-21T08:41:45;98665.22;;;31.65;85.41
17772;BME280;9010;32.624;-96.938;2022-07-21T08:44:14;98666.75;;;31.61;85.29
17772;BME280;9010;32.624;-96.938;2022-07-21T08:46:42;98666.13;;;31.59;85.73
17772;BME280;9010;32.624;-96.938;2022-07-21T08:49:12;98670.75;;;31.59;84.99
17772;BME280;9010;32.624;-96.938;2022-07-21T08:51:41;98668.69;;;31.54;85.57
17772;BME280;9010;32.624;-96.938;2022-07-21T08:54:09;98665.38;;;31.52;86.10
17772;BME280;9010;32.624;-96.938;2022-07-21T08:56:37;98662.94;;;31.44;86.40
17772;BME280;9010;32.624;-96.938;2022-07-21T08:59:07;98663.41;;;31.41;86.46
17772;BME280;9010;32.624;-96.938;2022-07-21T09:01:35;98669.88;;;31.40;86.38
17772;BME280;9010;32.624;-96.938;2022-07-21T09:04:19;98665.97;;;31.36;86.95
17772;BME280;9010;32.624;-96.938;2022-07-21T09:06:53;98669.34;;;31.31;86.47
17772;BME280;9010;32.624;-96.938;2022-07-21T09:09:22;98663.09;;;31.31;86.88
17772;BME280;9010;32.624;-96.938;2022-07-21T09:11:51;98657.75;;;31.24;87.35
17772;BME280;9010;32.624;-96.938;2022-07-21T09:14:22;98668.69;;;31.18;87.58
17772;BME280;9010;32.624;-96.938;2022-07-21T09:16:51;98678.97;;;31.16;88.36
17772;BME280;9010;32.624;-96.938;2022-07-21T09:19:23;98674.88;;;31.07;88.42
17772;BME280;9010;32.624;-96.938;2022-07-21T09:21:53;98676.34;;;31.03;89.40
17772;BME280;9010;32.624;-96.938;2022-07-21T09:24:23;98681.88;;;30.96;89.58
17772;BME280;9010;32.624;-96.938;2022-07-21T09:27:04;98684.81;;;30.95;89.85
17772;BME280;9010;32.624;-96.938;2022-07-21T09:29:44;98685.22;;;30.92;89.93
17772;BME280;9010;32.624;-96.938;2022-07-21T09:32:23;98695.94;;;30.87;90.45
17772;BME280;9010;32.624;-96.938;2022-07-21T09:34:54;98704.06;;;30.87;90.42
17772;BME280;9010;32.624;-96.938;2022-07-21T09:37:26;98703.28;;;30.80;90.89
17772;BME280;9010;32.624;-96.938;2022-07-21T09:39:55;98709.34;;;30.82;91.45
17772;BME280;9010;32.624;-96.938;2022-07-21T09:42:26;98704.84;;;30.69;92.02
17772;BME280;9010;32.624;-96.938;2022-07-21T09:44:57;98716.38;;;30.64;92.85
17772;BME280;9010;32.624;-96.938;2022-07-21T09:47:29;98713.94;;;30.56;93.90
17772;BME280;9010;32.624;-96.938;2022-07-21T09:49:59;98707.88;;;30.54;94.26
17772;BME280;9010;32.624;-96.938;2022-07-21T09:52:29;98711.88;;;30.52;94.97
17772;BME280;9010;32.624;-96.938;2022-07-21T09:55:00;98716.47;;;30.51;95.33
17772;BME280;9010;32.624;-96.938;2022-07-21T09:57:29;98716.75;;;30.43;96.25
17772;BME280;9010;32.624;-96.938;2022-07-21T09:59:59;98714.91;;;30.37;96.72
17772;BME280;9010;32.624;-96.938;2022-07-21T10:02:30;98715.75;;;30.31;97.63
17772;BME280;9010;32.624;-96.938;2022-07-21T10:05:00;98722.44;;;30.29;97.99
17772;BME280;9010;32.624;-96.938;2022-07-21T10:07:31;98726.22;;;30.28;97.86
17772;BME280;9010;32.624;-96.938;2022-07-21T10:09:59;98722.94;;;30.19;99.63
17772;BME280;9010;32.624;-96.938;2022-07-21T10:12:28;98725.84;;;30.17;99.59
17772;BME280;9010;32.624;-96.938;2022-07-21T10:14:56;98722.28;;;30.17;100.00
17772;BME280;9010;32.624;-96.938;2022-07-21T10:17:26;98725.06;;;30.10;100.00
17772;BME280;9010;32.624;-96.938;2022-07-21T10:20:02;98727.97;;;30.09;100.00
17772;BME280;9010;32.624;-96.938;2022-07-21T10:22:44;98742.78;;;30.13;100.00
17772;BME280;9010;32.624;-96.938;2022-07-21T10:25:17;98733.84;;;30.06;100.00
17772;BME280;9010;32.624;-96.938;2022-07-21T10:28:12;98740.34;;;30.05;100.00
17772;BME280;9010;32.624;-96.938;2022-07-21T10:30:42;98734.69;;;30.06;100.00
17772;BME280;9010;32.624;-96.938;2022-07-21T10:33:14;98740.53;;;30.03;100.00
17772;BME280;9010;32.624;-96.938;2022-07-21T10:35:44;98736.97;;;30.03;100.00
17772;BME280;9010;32.624;-96.938;2022-07-21T10:38:34;98744.31;;;30.02;100.00
17772;BME280;9010;32.624;-96.938;2022-07-21T10:41:04;98749.31;;;29.99;100.00
17772;BME280;9010;32.624;-96.938;2022-07-21T10:43:37;98753.31;;;29.90;100.00
17772;BME280;9010;32.624;-96.938;2022-07-21T10:46:37;98755.59;;;29.93;100.00
17772;BME280;9010;32.624;-96.938;2022-07-21T10:49:08;98762.31;;;29.84;100.00
17772;BME280;9010;32.624;-96.938;2022-07-21T10:51:38;98765.63;;;29.86;100.00
17772;BME280;9010;32.624;-96.938;2022-07-21T10:54:17;98765.03;;;29.77;100.00
17772;BME280;9010;32.624;-96.938;2022-07-21T10:56:45;98778.59;;;29.84;100.00
17772;BME280;9010;32.624;-96.938;2022-07-21T10:59:14;98779.19;;;29.86;100.00
17772;BME280;9010;32.624;-96.938;2022-07-21T11:01:42;98786.50;;;29.79;100.00
17772;BME280;9010;32.624;-96.938;2022-07-21T11:04:14;98790.47;;;29.76;100.00
17772;BME280;9010;32.624;-96.938;2022-07-21T11:06:44;98794.44;;;29.74;100.00
17772;BME280;9010;32.624;-96.938;2022-07-21T11:09:14;98792.56;;;29.74;100.00
17772;BME280;9010;32.624;-96.938;2022-07-21T11:11:59;98806.75;;;29.70;100.00
17772;BME280;9010;32.624;-96.938;2022-07-21T11:14:38;98805.91;;;29.76;100.00
17772;BME280;9010;32.624;-96.938;2022-07-21T11:17:08;98807.81;;;29.69;100.00
17772;BME280;9010;32.624;-96.938;2022-07-21T11:19:43;98814.44;;;29.73;100.00
17772;BME280;9010;32.624;-96.938;2022-07-21T11:22:16;98818.19;;;29.72;100.00
17772;BME280;9010;32.624;-96.938;2022-07-21T11:24:46;98820.72;;;29.67;100.00
17772;BME280;9010;32.624;-96.938;2022-07-21T11:27:16;98823.25;;;29.61;100.00
17772;BME280;9010;32.624;-96.938;2022-07-21T11:29:46;98830.34;;;29.56;100.00
17772;BME280;9010;32.624;-96.938;2022-07-21T11:32:16;98831.00;;;29.51;100.00
17772;BME280;9010;32.624;-96.938;2022-07-21T11:34:48;98833.28;;;29.54;100.00
17772;BME280;9010;32.624;-96.938;2022-07-21T11:37:19;98831.19;;;29.56;100.00
17772;BME280;9010;32.624;-96.938;2022-07-21T11:39:54;98851.19;;;29.55;100.00
17772;BME280;9010;32.624;-96.938;2022-07-21T11:42:24;98849.53;;;29.54;100.00
17772;BME280;9010;32.624;-96.938;2022-07-21T11:44:53;98844.13;;;29.54;100.00
17772;BME280;9010;32.624;-96.938;2022-07-21T11:47:22;98850.97;;;29.50;100.00
17772;BME280;9010;32.624;-96.938;2022-07-21T11:49:54;98853.28;;;29.47;100.00
17772;BME280;9010;32.624;-96.938;2022-07-21T11:52:26;98850.78;;;29.45;100.00
17772;BME280;9010;32.624;-96.938;2022-07-21T11:54:56;98854.53;;;29.44;100.00
17772;BME280;9010;32.624;-96.938;2022-07-21T11:57:25;98856.22;;;29.45;100.00
17772;BME280;9010;32.624;-96.938;2022-07-21T11:59:54;98865.78;;;29.41;100.00
17772;BME280;9010;32.624;-96.938;2022-07-21T12:02:24;98866.81;;;29.40;100.00
17772;BME280;9010;32.624;-96.938;2022-07-21T12:04:56;98874.94;;;29.40;100.00
17772;BME280;9010;32.624;-96.938;2022-07-21T12:07:26;98870.38;;;29.34;100.00
17772;BME280;9010;32.624;-96.938;2022-07-21T12:09:56;98881.22;;;29.34;100.00
17772;BME280;9010;32.624;-96.938;2022-07-21T12:12:32;98888.28;;;29.35;100.00
17772;BME280;9010;32.624;-96.938;2022-07-21T12:15:12;98890.81;;;29.37;100.00
17772;BME280;9010;32.624;-96.938;2022-07-21T12:17:42;98888.94;;;29.37;100.00
17772;BME280;9010;32.624;-96.938;2022-07-21T12:20:13;98898.72;;;29.32;100.00
17772;BME280;9010;32.624;-96.938;2022-07-21T12:22:43;98895.19;;;29.31;100.00
17772;BME280;9010;32.624;-96.938;2022-07-21T12:25:13;98902.25;;;29.32;100.00
17772;BME280;9010;32.624;-96.938;2022-07-21T12:27:45;98908.31;;;29.34;100.00
17772;BME280;9010;32.624;-96.938;2022-07-21T12:30:32;98904.97;;;29.32;100.00
17772;BME280;9010;32.624;-96.938;2022-07-21T12:33:06;98905.38;;;29.36;100.00
17772;BME280;9010;32.624;-96.938;2022-07-21T12:35:37;98906.63;;;29.33;100.00
17772;BME280;9010;32.624;-96.938;2022-07-21T12:38:10;98910.78;;;29.29;100.00
17772;BME280;9010;32.624;-96.938;2022-07-21T12:40:41;98913.31;;;29.31;100.00
17772;BME280;9010;32.624;-96.938;2022-07-21T12:43:12;98921.63;;;29.29;100.00
17772;BME280;9010;32.624;-96.938;2022-07-21T12:45:49;98929.13;;;29.27;100.00
17772;BME280;9010;32.624;-96.938;2022-07-21T12:48:19;98923.72;;;29.27;100.00
17772;BME280;9010;32.624;-96.938;2022-07-21T12:51:20;98923.31;;;29.30;100.00
17772;BME280;9010;32.624;-96.938;2022-07-21T12:53:50;98923.91;;;29.32;100.00
17772;BME280;9010;32.624;-96.938;2022-07-21T12:56:21;98934.75;;;29.32;100.00
17772;BME280;9010;32.624;-96.938;2022-07-21T12:58:50;98940.41;;;29.31;100.00
17772;BME280;9010;32.624;-96.938;2022-07-21T13:01:20;98953.72;;;29.39;100.00
17772;BME280;9010;32.624;-96.938;2022-07-21T13:03:50;98947.47;;;29.38;100.00